createdAt,value
2022-08-03T00:00:15.380Z,6.75
2022-08-03T00:03:09.906Z,8.27
2022-08-03T00:06:03.540Z,8.25
2022-08-03T00:08:34.115Z,9.05
2022-08-03T00:11:13.037Z,9.15
2022-08-03T00:13:44.898Z,9.57
2022-08-03T00:16:17.061Z,7.15
2022-08-03T00:18:51.815Z,8.23
2022-08-03T00:21:24.103Z,9.55
2022-08-03T00:23:56.117Z,6.07
2022-08-03T00:26:28.464Z,6.80
2022-08-03T00:29:00.419Z,8.63
2022-08-03T00:31:44.959Z,8.98
2022-08-03T00:34:36.472Z,9.05
2022-08-03T00:37:20.105Z,7.13
2022-08-03T00:40:24.036Z,7.68
2022-08-03T00:42:58.972Z,6.65
2022-08-03T00:45:34.088Z,7.78
2022-08-03T00:48:30.138Z,8.68
2022-08-03T00:51:03.347Z,10.13
2022-08-03T00:53:37.312Z,5.63
2022-08-03T00:56:09.515Z,9.55
2022-08-03T00:58:42.505Z,8.85
2022-08-03T01:01:15.676Z,8.27
2022-08-03T01:03:48.314Z,8.15
2022-08-03T01:06:35.443Z,6.72
2022-08-03T01:09:15.976Z,9.43
2022-08-03T01:12:00.457Z,6.43
2022-08-03T01:14:42.465Z,11.98
2022-08-03T01:17:24.674Z,9.35
2022-08-03T01:20:14.005Z,8.38
2022-08-03T01:23:18.203Z,7.40
2022-08-03T01:26:13.111Z,7.65
2022-08-03T01:29:03.363Z,7.15
2022-08-03T01:32:53.303Z,6.15
2022-08-03T01:34:44.898Z,6.35
2022-08-03T01:37:25.521Z,8.00
2022-08-03T01:40:00.924Z,7.68
2022-08-03T01:42:43.367Z,5.55
2022-08-03T01:45:18.375Z,7.50
2022-08-03T01:47:55.103Z,10.68
2022-08-03T01:50:30.991Z,5.28
2022-08-03T01:53:05.270Z,8.15
2022-08-03T01:55:40.722Z,10.80
2022-08-03T01:58:17.134Z,7.43
2022-08-03T02:00:51.686Z,10.50
2022-08-03T02:03:28.762Z,7.13
2022-08-03T02:07:02.735Z,7.65
2022-08-03T02:08:58.155Z,6.45
2022-08-03T02:11:31.040Z,9.45
2022-08-03T02:14:07.749Z,6.70
2022-08-03T02:16:40.442Z,7.30
2022-08-03T02:19:16.995Z,8.65
2022-08-03T02:21:56.874Z,10.13
2022-08-03T02:24:35.250Z,8.45
2022-08-03T02:27:14.297Z,8.00
2022-08-03T02:29:52.525Z,6.63
2022-08-03T02:32:30.511Z,8.10
2022-08-03T02:35:09.615Z,7.03
2022-08-03T02:37:49.721Z,7.65
2022-08-03T02:40:27.623Z,7.60
2022-08-03T02:43:03.233Z,10.40
2022-08-03T02:45:41.514Z,8.18
2022-08-03T02:48:23.787Z,8.68
2022-08-03T02:51:02.202Z,8.02
2022-08-03T02:53:35.189Z,8.40
2022-08-03T02:56:10.770Z,10.27
2022-08-03T02:58:46.053Z,8.00
2022-08-03T03:01:19.208Z,9.60
2022-08-03T03:03:52.431Z,9.63
2022-08-03T03:06:30.170Z,9.10
2022-08-03T03:09:03.733Z,8.30
2022-08-03T03:11:37.810Z,6.70
2022-08-03T03:14:13.560Z,5.93
2022-08-03T03:16:51.794Z,4.43
2022-08-03T03:19:30.725Z,7.75
2022-08-03T03:22:09.349Z,10.05
2022-08-03T03:24:43.376Z,6.97
2022-08-03T03:27:17.977Z,7.15
2022-08-03T03:29:51.006Z,4.72
2022-08-03T03:32:23.675Z,7.00
2022-08-03T03:34:56.899Z,7.50
2022-08-03T03:37:33.146Z,5.57
2022-08-03T03:40:05.382Z,10.35
2022-08-03T03:42:38.787Z,6.90
2022-08-03T03:45:12.883Z,8.23
2022-08-03T03:47:45.913Z,8.57
2022-08-03T03:50:21.672Z,7.97
2022-08-03T03:52:57.233Z,10.65
2022-08-03T03:55:29.619Z,8.35
2022-08-03T03:58:04.485Z,10.20
2022-08-03T04:00:37.109Z,11.35
2022-08-03T04:03:30.086Z,11.77
2022-08-03T04:06:29.765Z,7.63
2022-08-03T04:09:17.310Z,8.07
2022-08-03T04:11:56.772Z,6.53
2022-08-03T04:14:33.298Z,14.57
2022-08-03T04:17:08.443Z,7.85
2022-08-03T04:19:45.680Z,9.48
2022-08-03T04:22:21.959Z,8.45
2022-08-03T04:25:03.355Z,7.60
2022-08-03T04:27:39.925Z,10.02
2022-08-03T04:30:14.327Z,8.18
2022-08-03T04:32:52.133Z,8.93
2022-08-03T04:35:26.352Z,7.25
2022-08-03T04:38:22.146Z,5.97
2022-08-03T04:40:59.619Z,5.85
2022-08-03T04:43:36.224Z,8.45
2022-08-03T04:46:11.941Z,9.60
2022-08-03T04:48:45.473Z,9.00
2022-08-03T04:51:18.985Z,9.82
2022-08-03T04:53:51.342Z,7.78
2022-08-03T04:56:27.521Z,7.65
2022-08-03T04:58:59.870Z,8.32
2022-08-03T05:01:32.471Z,11.10
2022-08-03T05:04:04.700Z,8.60
2022-08-03T05:06:41.467Z,9.23
2022-08-03T05:09:48.933Z,9.35
2022-08-03T05:12:16.863Z,10.82
2022-08-03T05:14:49.546Z,7.78
2022-08-03T05:17:22.863Z,6.35
2022-08-03T05:19:55.238Z,7.05
2022-08-03T05:22:27.838Z,9.75
2022-08-03T05:25:00.372Z,6.65
2022-08-03T05:27:36.462Z,8.43
2022-08-03T05:30:30.743Z,8.80
2022-08-03T05:33:03.324Z,7.75
2022-08-03T05:35:56.793Z,6.70
2022-08-03T05:38:35.064Z,10.70
2022-08-03T05:41:22.399Z,9.52
2022-08-03T05:43:59.459Z,6.32
2022-08-03T05:46:31.921Z,9.48
2022-08-03T05:49:04.936Z,7.28
2022-08-03T05:51:37.480Z,7.78
2022-08-03T05:54:10.428Z,8.40
2022-08-03T05:56:43.571Z,12.75
2022-08-03T05:59:37.668Z,6.90
2022-08-03T06:02:11.070Z,10.73
2022-08-03T06:04:43.722Z,8.77
2022-08-03T06:07:15.885Z,7.05
2022-08-03T06:10:35.193Z,6.88
2022-08-03T06:12:41.823Z,9.20
2022-08-03T06:15:17.248Z,12.15
2022-08-03T06:17:50.632Z,8.82
2022-08-03T06:20:27.294Z,11.30
2022-08-03T06:23:01.188Z,9.07
2022-08-03T06:25:34.404Z,7.43
2022-08-03T06:28:09.484Z,6.18
2022-08-03T06:30:47.616Z,5.28
2022-08-03T06:33:22.089Z,10.90
2022-08-03T06:35:54.837Z,8.65
2022-08-03T06:38:26.887Z,7.80
2022-08-03T06:40:59.544Z,8.07
2022-08-03T06:43:31.631Z,5.28
2022-08-03T06:46:12.689Z,7.25
2022-08-03T06:48:50.748Z,7.00
2022-08-03T06:52:04.384Z,6.55
2022-08-03T06:54:15.940Z,5.18
2022-08-03T06:56:50.340Z,11.57
2022-08-03T07:00:09.553Z,8.70
2022-08-03T07:02:19.983Z,7.03
2022-08-03T07:04:52.326Z,8.73
2022-08-03T07:07:23.906Z,6.97
2022-08-03T07:09:57.791Z,6.40
2022-08-03T07:12:31.274Z,8.48
2022-08-03T07:15:03.633Z,7.70
2022-08-03T07:17:39.827Z,9.95
2022-08-03T07:20:13.742Z,6.70
2022-08-03T07:22:46.477Z,7.90
2022-08-03T07:28:19.597Z,7.47
2022-08-03T07:30:51.574Z,8.55
2022-08-03T07:33:26.627Z,5.72
2022-08-03T07:35:58.575Z,6.47
2022-08-03T07:38:30.826Z,5.15
2022-08-03T07:41:03.466Z,10.85
2022-08-03T07:43:35.846Z,6.18
2022-08-03T07:46:07.812Z,5.63
2022-08-03T07:48:42.892Z,5.43
2022-08-03T07:51:22.833Z,5.50
2022-08-03T07:54:13.689Z,5.25
2022-08-03T07:56:45.462Z,4.47
2022-08-03T07:59:16.942Z,4.38
2022-08-03T08:01:55.124Z,3.95
2022-08-03T08:04:56.925Z,6.18
2022-08-03T08:07:51.093Z,4.18
2022-08-03T08:10:24.424Z,6.90
2022-08-03T08:12:56.866Z,5.20
2022-08-03T08:15:29.139Z,4.68
2022-08-03T08:18:03.639Z,7.10
2022-08-03T08:20:40.080Z,2.85
2022-08-03T08:23:42.598Z,5.40
2022-08-03T08:26:07.020Z,3.55
2022-08-03T08:28:39.238Z,4.90
2022-08-03T08:31:11.260Z,5.30
2022-08-03T08:36:39.379Z,3.80
2022-08-03T08:39:12.538Z,3.22
2022-08-03T08:42:10.851Z,6.63
2022-08-03T08:44:48.101Z,5.90
2022-08-03T08:47:22.586Z,3.75
2022-08-03T08:50:09.215Z,5.10
2022-08-03T08:52:46.729Z,5.00
2022-08-03T08:55:23.960Z,3.78
2022-08-03T08:58:01.436Z,3.90
2022-08-03T09:00:33.854Z,5.15
2022-08-03T09:03:05.959Z,4.93
2022-08-03T09:05:55.490Z,4.70
2022-08-03T09:08:32.278Z,3.90
2022-08-03T09:11:05.614Z,3.33
2022-08-03T09:13:38.619Z,4.93
2022-08-03T09:16:17.095Z,4.63
2022-08-03T09:18:51.514Z,5.03
2022-08-03T09:21:34.193Z,3.90
2022-08-03T09:24:25.659Z,6.03
2022-08-03T09:27:03.195Z,4.68
2022-08-03T09:29:36.435Z,9.93
2022-08-03T09:32:09.456Z,7.82
2022-08-03T09:34:41.754Z,4.70
2022-08-03T09:37:18.485Z,5.00
2022-08-03T09:39:53.878Z,9.00
2022-08-03T09:42:27.896Z,4.30
2022-08-03T09:45:02.955Z,3.80
2022-08-03T09:47:37.757Z,9.68
2022-08-03T09:50:17.604Z,3.38
2022-08-03T09:52:52.940Z,6.18
2022-08-03T09:56:34.189Z,3.22
2022-08-03T09:58:21.099Z,6.72
2022-08-03T10:01:01.934Z,2.50
2022-08-03T10:03:36.521Z,4.97
2022-08-03T10:06:29.312Z,7.95
2022-08-03T10:09:13.258Z,4.50
2022-08-03T10:11:49.959Z,3.53
2022-08-03T10:14:33.081Z,4.10
2022-08-03T10:17:05.858Z,6.45
2022-08-03T10:19:38.357Z,6.43
2022-08-03T10:22:16.256Z,7.10
2022-08-03T10:24:57.024Z,5.05
2022-08-03T10:27:37.101Z,5.00
2022-08-03T10:30:12.195Z,5.38
2022-08-03T10:32:47.234Z,3.75
2022-08-03T10:35:23.890Z,5.15
2022-08-03T10:38:01.616Z,3.60
2022-08-03T10:40:55.789Z,4.93
2022-08-03T10:43:37.475Z,5.28
2022-08-03T10:46:11.795Z,3.08
2022-08-03T10:48:44.656Z,3.03
2022-08-03T10:51:17.544Z,3.08
2022-08-03T10:53:54.553Z,4.82
2022-08-03T10:56:56.269Z,2.95
2022-08-03T11:00:00.469Z,3.28
2022-08-03T11:03:15.067Z,2.60
2022-08-03T11:05:54.094Z,3.50
2022-08-03T11:08:38.240Z,5.05
2022-08-03T11:11:28.942Z,7.40
2022-08-03T11:14:10.458Z,3.40
2022-08-03T11:16:58.773Z,4.43
2022-08-03T11:19:56.753Z,3.35
2022-08-03T11:22:56.022Z,3.88
2022-08-03T11:25:53.861Z,5.38
2022-08-03T11:28:30.722Z,2.22
2022-08-03T11:31:49.223Z,6.35
2022-08-03T11:34:21.852Z,2.85
2022-08-03T11:37:32.956Z,4.45
2022-08-03T11:40:11.011Z,5.88
2022-08-03T11:42:48.890Z,2.88
2022-08-03T11:45:21.792Z,5.80
2022-08-03T11:47:59.031Z,4.07
2022-08-03T11:50:40.995Z,4.93
2022-08-03T11:53:19.113Z,2.78
2022-08-03T11:55:54.310Z,5.07
2022-08-03T11:59:01.043Z,2.53
2022-08-03T12:01:23.098Z,2.97
2022-08-03T12:03:55.791Z,3.15
2022-08-03T12:06:27.515Z,5.20
2022-08-03T12:08:59.931Z,3.78
2022-08-03T12:11:37.531Z,5.97
2022-08-03T12:14:50.339Z,3.40
2022-08-03T12:17:23.188Z,1.80
2022-08-03T12:19:55.451Z,3.28
2022-08-03T12:22:35.632Z,2.42
2022-08-03T12:25:08.774Z,6.15
2022-08-03T12:27:43.291Z,2.92
2022-08-03T12:30:16.110Z,2.97
2022-08-03T12:32:48.152Z,8.25
2022-08-03T12:35:29.831Z,3.88
2022-08-03T12:38:01.509Z,4.35
2022-08-03T12:40:39.295Z,3.28
2022-08-03T12:43:22.351Z,3.13
2022-08-03T12:45:54.096Z,4.43
2022-08-03T12:48:25.233Z,2.10
2022-08-03T12:51:12.985Z,6.18
2022-08-03T12:53:44.493Z,2.78
2022-08-03T12:56:16.432Z,2.25
2022-08-03T12:58:51.894Z,2.40
2022-08-03T13:04:34.841Z,5.80
2022-08-03T13:07:14.382Z,3.72
2022-08-03T13:09:48.290Z,2.90
2022-08-03T13:12:22.063Z,5.18
2022-08-03T13:14:59.343Z,3.53
2022-08-03T13:17:32.163Z,4.68
2022-08-03T13:20:04.261Z,3.65
2022-08-03T13:22:36.801Z,3.60
2022-08-03T13:25:09.763Z,4.95
2022-08-03T13:28:03.829Z,5.70
2022-08-03T13:30:36.521Z,3.53
2022-08-03T13:33:08.941Z,3.75
2022-08-03T13:35:40.944Z,2.17
2022-08-03T13:38:13.356Z,2.50
2022-08-03T13:40:47.461Z,4.93
2022-08-03T13:43:22.722Z,4.20
2022-08-03T13:45:57.897Z,6.25
2022-08-03T13:48:35.908Z,2.65
2022-08-03T13:51:22.067Z,2.97
2022-08-03T13:53:55.603Z,3.72
2022-08-03T13:56:27.762Z,3.45
2022-08-03T13:59:01.062Z,5.05
2022-08-03T14:01:54.352Z,5.97
2022-08-03T14:04:28.121Z,3.95
2022-08-03T14:07:00.242Z,7.05
2022-08-03T14:09:32.903Z,6.45
2022-08-03T14:12:08.096Z,2.92
2022-08-03T14:14:40.772Z,5.65
2022-08-03T14:17:16.457Z,4.78
2022-08-03T14:19:53.421Z,3.85
2022-08-03T14:22:26.132Z,4.07
2022-08-03T14:24:58.701Z,3.67
2022-08-03T14:27:30.952Z,4.15
2022-08-03T14:30:03.710Z,4.88
2022-08-03T14:32:38.911Z,2.72
2022-08-03T14:35:12.631Z,2.72
2022-08-03T14:37:45.031Z,3.92
2022-08-03T14:40:17.640Z,2.80
2022-08-03T14:42:49.842Z,5.10
2022-08-03T14:45:22.152Z,3.33
2022-08-03T14:50:34.599Z,3.97
2022-08-03T14:50:51.675Z,5.07
2022-08-03T14:53:24.880Z,3.20
2022-08-03T14:56:09.626Z,4.45
2022-08-03T14:58:42.821Z,6.47
2022-08-03T15:02:03.343Z,4.07
2022-08-03T15:04:16.105Z,4.63
2022-08-03T15:06:48.599Z,3.47
2022-08-03T15:09:24.296Z,2.55
2022-08-03T15:11:56.840Z,3.95
2022-08-03T15:14:33.222Z,5.03
2022-08-03T15:17:07.960Z,5.45
2022-08-03T15:20:03.242Z,2.42
2022-08-03T15:22:35.940Z,2.60
2022-08-03T15:26:29.395Z,3.58
2022-08-03T15:28:03.461Z,3.03
2022-08-03T15:30:37.999Z,2.88
2022-08-03T15:33:14.168Z,2.53
2022-08-03T15:35:52.177Z,4.22
2022-08-03T15:38:30.206Z,5.60
2022-08-03T15:41:01.640Z,3.45
2022-08-03T15:43:33.664Z,3.72
2022-08-03T15:46:28.828Z,7.60
2022-08-03T15:49:02.421Z,5.22
2022-08-03T15:51:38.623Z,7.55
2022-08-03T15:54:11.400Z,4.80
2022-08-03T15:56:45.899Z,4.90
2022-08-03T15:59:20.080Z,4.78
2022-08-03T16:01:54.709Z,3.35
2022-08-03T16:04:27.355Z,3.83
2022-08-03T16:07:02.129Z,4.85
2022-08-03T16:09:43.304Z,5.72
2022-08-03T16:12:16.898Z,7.65
2022-08-03T16:14:53.338Z,3.25
2022-08-03T16:17:26.144Z,5.18
2022-08-03T16:19:59.686Z,5.22
2022-08-03T16:22:34.270Z,6.55
2022-08-03T16:25:06.466Z,6.30
2022-08-03T16:28:00.509Z,4.75
2022-08-03T16:30:40.580Z,7.65
2022-08-03T16:33:17.055Z,14.60
2022-08-03T16:35:53.756Z,10.18
2022-08-03T16:38:27.911Z,4.85
2022-08-03T16:41:01.869Z,3.70
2022-08-03T16:43:35.129Z,4.30
2022-08-03T16:46:14.488Z,5.15
2022-08-03T16:48:46.329Z,3.67
2022-08-03T16:51:18.255Z,4.50
2022-08-03T16:54:07.929Z,5.32
2022-08-03T16:56:42.078Z,5.38
2022-08-03T16:59:14.007Z,4.22
2022-08-03T17:01:49.929Z,6.55
2022-08-03T17:04:24.399Z,4.25
2022-08-03T17:06:56.699Z,4.95
2022-08-03T17:12:22.971Z,5.82
2022-08-03T17:14:59.342Z,5.68
2022-08-03T17:17:47.458Z,4.80
2022-08-03T17:20:29.754Z,4.90
2022-08-03T17:23:34.927Z,4.97
2022-08-03T17:26:04.592Z,7.43
2022-08-03T17:28:50.206Z,3.80
2022-08-03T17:31:31.302Z,8.15
2022-08-03T17:34:06.875Z,4.90
2022-08-03T17:37:03.402Z,4.07
2022-08-03T17:39:56.875Z,7.72
2022-08-03T17:42:30.634Z,7.03
2022-08-03T17:45:07.439Z,6.82
2022-08-03T17:47:42.653Z,10.05
2022-08-03T17:50:25.123Z,9.15
2022-08-03T17:53:14.453Z,7.05
2022-08-03T17:55:59.615Z,8.00
2022-08-03T17:58:55.170Z,21.17
2022-08-03T18:02:03.199Z,8.90
2022-08-03T18:04:45.103Z,9.10
2022-08-03T18:08:01.532Z,6.00
2022-08-03T18:10:49.588Z,12.23
2022-08-03T18:13:30.172Z,9.25
2022-08-03T18:16:04.841Z,8.23
2022-08-03T18:18:45.597Z,10.63
2022-08-03T20:13:03.561Z,9.00
2022-08-03T20:23:19.816Z,20.63
2022-08-03T20:27:30.607Z,10.30
2022-08-03T20:31:43.187Z,9.80
2022-08-03T20:35:19.229Z,12.48
2022-08-03T20:38:59.588Z,14.02
2022-08-03T20:46:32.822Z,12.35
2022-08-03T20:49:15.727Z,12.38
2022-08-03T20:51:52.575Z,17.65
2022-08-03T20:54:31.341Z,10.25
2022-08-03T20:57:07.165Z,14.50
2022-08-03T20:59:50.840Z,11.82
2022-08-03T21:02:30.174Z,15.05
2022-08-03T21:05:08.687Z,15.23
2022-08-03T21:08:06.160Z,15.13
2022-08-03T21:10:43.303Z,14.00
2022-08-03T21:13:24.012Z,12.57
2022-08-03T21:16:12.605Z,16.58
2022-08-03T21:19:02.566Z,10.85
2022-08-03T21:21:42.096Z,16.67
2022-08-03T21:24:16.318Z,12.73
2022-08-03T21:26:54.095Z,13.00
2022-08-03T21:29:27.680Z,15.93
2022-08-03T21:32:02.379Z,14.07
2022-08-03T21:34:34.901Z,16.98
2022-08-03T21:37:10.279Z,14.85
2022-08-03T21:39:50.919Z,11.93
2022-08-03T21:42:24.209Z,10.65
2022-08-03T21:44:57.236Z,14.45
2022-08-03T21:47:30.386Z,14.63
2022-08-03T21:50:09.644Z,13.32
2022-08-03T21:52:48.818Z,17.73
2022-08-03T21:55:21.300Z,16.38
2022-08-03T21:57:56.425Z,15.40
2022-08-03T22:00:28.808Z,12.52
2022-08-03T22:03:15.187Z,16.52
2022-08-03T22:05:49.607Z,15.27
2022-08-03T22:08:24.228Z,13.30
2022-08-03T22:10:56.152Z,17.15
2022-08-03T22:13:43.622Z,16.58
2022-08-03T22:16:18.051Z,15.60
2022-08-03T22:18:50.190Z,13.82
2022-08-03T22:21:27.968Z,16.40
2022-08-03T22:24:12.167Z,19.75
2022-08-03T22:27:07.211Z,17.58
2022-08-03T22:29:43.230Z,17.50
2022-08-03T22:32:15.264Z,16.55
2022-08-03T22:34:50.202Z,14.50
2022-08-03T22:37:24.469Z,16.33
2022-08-03T22:40:01.019Z,16.38
2022-08-03T22:42:35.541Z,18.02
2022-08-03T22:45:10.779Z,18.92
2022-08-03T22:48:04.137Z,15.40
2022-08-03T22:50:37.060Z,13.43
2022-08-03T22:53:10.853Z,12.68
2022-08-03T22:55:46.789Z,14.13
2022-08-03T22:58:21.204Z,15.23
2022-08-03T23:00:56.747Z,19.58
2022-08-03T23:03:58.764Z,15.68
2022-08-03T23:06:29.918Z,16.35
2022-08-03T23:09:01.879Z,15.80
2022-08-03T23:11:42.886Z,16.20
2022-08-03T23:14:20.043Z,15.68
2022-08-03T23:16:56.969Z,17.48
2022-08-03T23:19:34.368Z,15.85
2022-08-03T23:22:28.628Z,17.90
2022-08-03T23:25:04.403Z,17.05
2022-08-03T23:27:43.932Z,17.83
2022-08-03T23:30:16.442Z,15.82
2022-08-03T23:32:54.883Z,14.70
2022-08-03T23:36:28.698Z,16.05
2022-08-03T23:38:40.113Z,16.48
2022-08-03T23:41:13.655Z,19.65
2022-08-03T23:43:54.133Z,16.77
2022-08-03T23:46:30.596Z,16.58
2022-08-03T23:49:03.749Z,15.68
2022-08-03T23:51:47.439Z,17.23
2022-08-03T23:54:31.496Z,17.80
2022-08-03T23:57:12.909Z,14.88
2022-08-03T23:59:58.398Z,15.18
